createdAt,value
2022-10-09T00:01:32.013Z,23.10
2022-10-09T00:03:59.333Z,23.11
2022-10-09T00:06:31.817Z,23.11
2022-10-09T00:09:01.807Z,23.11
2022-10-09T00:11:29.627Z,23.11
2022-10-09T00:13:56.814Z,23.10
2022-10-09T00:16:24.804Z,23.10
2022-10-09T00:18:52.530Z,23.10
2022-10-09T00:21:24.567Z,23.11
2022-10-09T00:23:51.921Z,23.11
2022-10-09T00:26:18.883Z,23.11
2022-10-09T00:28:46.640Z,23.10
2022-10-09T00:31:14.511Z,23.10
2022-10-09T00:33:41.213Z,23.10
2022-10-09T00:36:28.112Z,23.11
2022-10-09T00:38:55.221Z,23.04
2022-10-09T00:41:28.629Z,23.10
2022-10-09T00:44:00.745Z,23.10
2022-10-09T00:46:27.303Z,23.09
2022-10-09T00:49:02.407Z,23.09
2022-10-09T00:51:31.525Z,23.08
2022-10-09T00:53:59.560Z,23.08
2022-10-09T00:56:26.419Z,23.07
2022-10-09T00:58:56.253Z,23.08
2022-10-09T01:01:23.001Z,23.07
2022-10-09T01:03:49.757Z,22.81
2022-10-09T01:06:29.638Z,23.06
2022-10-09T01:09:07.221Z,23.06
2022-10-09T01:11:42.388Z,23.06
2022-10-09T01:14:27.761Z,23.05
2022-10-09T01:17:40.560Z,23.05
2022-10-09T01:20:26.875Z,23.05
2022-10-09T01:23:02.792Z,23.03
2022-10-09T01:25:36.195Z,23.04
2022-10-09T01:28:06.633Z,23.04
2022-10-09T01:30:35.238Z,23.04
2022-10-09T01:33:02.998Z,23.02
2022-10-09T01:35:30.855Z,23.04
2022-10-09T01:37:58.643Z,23.03
2022-10-09T01:40:26.606Z,23.00
2022-10-09T01:42:53.449Z,23.04
2022-10-09T01:45:19.999Z,23.03
2022-10-09T01:47:46.648Z,23.03
2022-10-09T01:50:22.792Z,23.03
2022-10-09T01:52:56.028Z,23.03
2022-10-09T01:55:31.753Z,23.02
2022-10-09T01:58:07.487Z,23.01
2022-10-09T02:00:37.696Z,23.03
2022-10-09T02:03:08.835Z,23.01
2022-10-09T02:05:37.091Z,22.93
2022-10-09T02:08:04.322Z,23.01
2022-10-09T02:10:34.648Z,23.01
2022-10-09T02:13:01.811Z,23.01
2022-10-09T02:15:34.730Z,23.01
2022-10-09T02:18:11.128Z,22.99
2022-10-09T02:20:42.032Z,23.00
2022-10-09T02:23:10.273Z,22.98
2022-10-09T02:25:38.834Z,23.00
2022-10-09T02:28:06.988Z,22.99
2022-10-09T02:30:50.173Z,22.99
2022-10-09T02:33:16.778Z,22.98
2022-10-09T02:35:43.878Z,22.99
2022-10-09T02:38:10.465Z,22.95
2022-10-09T02:40:36.972Z,22.99
2022-10-09T02:43:03.537Z,22.98
2022-10-09T02:45:30.047Z,22.98
2022-10-09T02:47:56.691Z,22.98
2022-10-09T02:50:23.182Z,22.97
2022-10-09T02:52:50.100Z,22.97
2022-10-09T02:55:16.911Z,22.96
2022-10-09T02:57:43.447Z,22.97
2022-10-09T03:00:10.592Z,22.95
2022-10-09T03:02:37.313Z,22.96
2022-10-09T03:05:04.104Z,22.96
2022-10-09T03:07:30.809Z,22.96
2022-10-09T03:09:58.348Z,22.95
2022-10-09T03:12:24.905Z,22.95
2022-10-09T03:14:51.384Z,22.94
2022-10-09T03:17:18.029Z,22.93
2022-10-09T03:19:44.551Z,22.92
2022-10-09T03:22:11.120Z,22.88
2022-10-09T03:24:37.653Z,22.92
2022-10-09T03:27:04.305Z,22.91
2022-10-09T03:29:30.990Z,22.91
2022-10-09T03:31:57.636Z,22.91
2022-10-09T03:34:24.171Z,22.91
2022-10-09T03:36:50.745Z,22.91
2022-10-09T03:39:17.327Z,22.91
2022-10-09T03:41:43.875Z,22.90
2022-10-09T03:44:10.364Z,22.89
2022-10-09T03:46:36.993Z,22.89
2022-10-09T03:49:03.569Z,22.89
2022-10-09T03:51:30.124Z,22.89
2022-10-09T03:53:56.736Z,22.89
2022-10-09T03:56:23.344Z,22.89
2022-10-09T03:58:49.834Z,22.88
2022-10-09T04:01:16.507Z,22.88
2022-10-09T04:03:43.042Z,22.87
2022-10-09T04:06:09.683Z,22.87
2022-10-09T04:08:36.271Z,22.86
2022-10-09T04:11:03.496Z,22.86
2022-10-09T04:13:30.074Z,22.82
2022-10-09T04:15:56.827Z,22.86
2022-10-09T04:18:23.808Z,22.85
2022-10-09T04:20:52.021Z,22.85
2022-10-09T04:23:19.801Z,22.84
2022-10-09T04:25:46.532Z,22.83
2022-10-09T04:28:13.527Z,22.82
2022-10-09T04:30:40.227Z,22.84
2022-10-09T04:33:11.795Z,22.83
2022-10-09T04:35:47.001Z,22.82
2022-10-09T04:38:13.569Z,22.74
2022-10-09T04:40:40.166Z,22.81
2022-10-09T04:43:06.760Z,22.81
2022-10-09T04:45:33.435Z,22.81
2022-10-09T04:48:00.000Z,22.73
2022-10-09T04:50:26.523Z,22.81
2022-10-09T04:52:59.056Z,22.80
2022-10-09T04:55:25.806Z,22.80
2022-10-09T04:57:52.332Z,22.80
2022-10-09T05:00:19.008Z,22.80
2022-10-09T05:02:45.564Z,22.79
2022-10-09T05:05:12.219Z,22.79
2022-10-09T05:07:38.697Z,22.80
2022-10-09T05:10:06.495Z,22.78
2022-10-09T05:12:33.061Z,22.71
2022-10-09T05:14:59.589Z,22.79
2022-10-09T05:17:26.176Z,22.78
2022-10-09T05:19:52.917Z,22.73
2022-10-09T05:22:19.426Z,22.79
2022-10-09T05:24:45.941Z,22.78
2022-10-09T05:27:12.473Z,22.78
2022-10-09T05:29:39.017Z,22.79
2022-10-09T05:32:05.632Z,22.79
2022-10-09T05:34:33.985Z,22.78
2022-10-09T05:37:00.491Z,22.77
2022-10-09T05:39:30.371Z,22.74
2022-10-09T05:41:56.910Z,22.77
2022-10-09T05:44:23.559Z,22.77
2022-10-09T05:46:50.119Z,22.51
2022-10-09T05:49:16.721Z,22.79
2022-10-09T05:51:43.277Z,22.79
2022-10-09T05:54:13.981Z,22.79
2022-10-09T05:56:40.749Z,22.78
2022-10-09T05:59:14.775Z,22.78
2022-10-09T06:01:51.644Z,22.78
2022-10-09T06:04:22.937Z,22.78
2022-10-09T06:06:50.031Z,22.78
2022-10-09T06:09:18.625Z,22.78
2022-10-09T06:11:45.596Z,22.78
2022-10-09T06:14:13.336Z,22.79
2022-10-09T06:16:43.309Z,22.79
2022-10-09T06:19:15.315Z,22.79
2022-10-09T06:21:42.532Z,22.79
2022-10-09T06:24:16.781Z,22.79
2022-10-09T06:29:03.237Z,22.80
2022-10-09T06:31:32.511Z,22.79
2022-10-09T06:34:03.230Z,22.81
2022-10-09T06:36:32.919Z,22.81
2022-10-09T06:39:01.027Z,22.79
2022-10-09T06:41:29.449Z,22.80
2022-10-09T06:44:16.622Z,22.81
2022-10-09T06:46:45.105Z,22.81
2022-10-09T06:49:12.431Z,22.82
2022-10-09T06:51:39.191Z,22.81
2022-10-09T06:54:11.385Z,22.79
2022-10-09T06:56:38.067Z,22.79
2022-10-09T06:59:06.350Z,22.83
2022-10-09T07:01:33.543Z,22.83
2022-10-09T07:04:07.002Z,22.84
2022-10-09T07:06:37.268Z,22.84
2022-10-09T07:09:08.453Z,22.84
2022-10-09T07:11:40.940Z,22.85
2022-10-09T07:14:08.947Z,22.85
2022-10-09T07:16:40.871Z,22.83
2022-10-09T07:19:10.990Z,22.85
2022-10-09T07:21:39.322Z,22.87
2022-10-09T07:24:06.977Z,22.83
2022-10-09T07:26:36.332Z,22.87
2022-10-09T07:29:05.305Z,22.88
2022-10-09T07:31:31.811Z,22.88
2022-10-09T07:33:58.795Z,22.88
2022-10-09T07:36:25.468Z,22.89
2022-10-09T07:38:54.180Z,22.88
2022-10-09T07:41:22.912Z,22.89
2022-10-09T07:43:49.973Z,22.82
2022-10-09T07:46:18.798Z,22.89
2022-10-09T07:48:45.916Z,22.83
2022-10-09T07:51:12.421Z,22.90
2022-10-09T07:53:39.009Z,22.91
2022-10-09T07:56:06.059Z,22.91
2022-10-09T07:58:32.793Z,22.93
2022-10-09T08:01:09.883Z,22.93
2022-10-09T08:03:37.342Z,22.94
2022-10-09T08:06:04.040Z,22.93
2022-10-09T08:08:30.651Z,22.94
2022-10-09T08:10:57.200Z,22.94
2022-10-09T08:13:23.769Z,22.95
2022-10-09T08:15:50.435Z,22.95
2022-10-09T08:18:17.063Z,22.96
2022-10-09T08:20:43.576Z,22.96
2022-10-09T08:23:10.312Z,22.98
2022-10-09T08:25:37.397Z,22.97
2022-10-09T08:28:04.954Z,22.90
2022-10-09T08:30:31.550Z,22.98
2022-10-09T08:32:58.140Z,22.72
2022-10-09T08:35:24.700Z,22.99
2022-10-09T08:37:51.340Z,23.00
2022-10-09T08:40:27.727Z,23.00
2022-10-09T08:43:03.595Z,23.00
2022-10-09T08:45:32.137Z,23.01
2022-10-09T08:48:10.940Z,23.00
2022-10-09T08:50:41.242Z,22.95
2022-10-09T08:53:23.967Z,23.02
2022-10-09T08:55:56.520Z,23.02
2022-10-09T08:58:27.709Z,23.03
2022-10-09T09:01:16.887Z,23.02
2022-10-09T09:03:52.658Z,23.03
2022-10-09T09:06:31.577Z,23.02
2022-10-09T09:09:16.727Z,23.02
2022-10-09T09:12:26.659Z,23.03
2022-10-09T09:15:13.140Z,22.98
2022-10-09T09:18:02.638Z,23.02
2022-10-09T09:20:50.673Z,23.03
2022-10-09T09:23:17.349Z,23.04
2022-10-09T09:25:45.952Z,22.76
2022-10-09T09:28:20.148Z,23.05
2022-10-09T09:31:01.734Z,23.04
2022-10-09T09:33:44.574Z,23.05
2022-10-09T09:36:17.447Z,23.05
2022-10-09T09:39:24.896Z,23.06
2022-10-09T09:41:30.619Z,23.06
2022-10-09T09:43:57.221Z,23.08
2022-10-09T09:46:27.250Z,23.08
2022-10-09T09:48:54.364Z,23.09
2022-10-09T09:51:32.802Z,23.09
2022-10-09T09:54:06.160Z,23.10
2022-10-09T09:56:59.624Z,23.10
2022-10-09T09:59:37.458Z,23.10
2022-10-09T10:02:14.739Z,23.11
2022-10-09T10:05:20.604Z,23.12
2022-10-09T10:07:50.035Z,23.11
2022-10-09T10:10:25.600Z,23.12
2022-10-09T10:12:54.734Z,23.12
2022-10-09T10:15:25.777Z,23.12
2022-10-09T10:18:09.521Z,23.14
2022-10-09T10:20:46.257Z,23.14
2022-10-09T10:23:36.653Z,23.14
2022-10-09T10:26:09.859Z,23.14
2022-10-09T10:31:17.538Z,23.12
2022-10-09T10:33:54.218Z,23.11
2022-10-09T10:36:20.844Z,23.10
2022-10-09T10:38:55.335Z,23.17
2022-10-09T10:41:37.578Z,23.12
2022-10-09T10:44:07.843Z,23.19
2022-10-09T10:46:49.677Z,23.20
2022-10-09T10:49:23.115Z,23.20
2022-10-09T10:51:53.915Z,23.21
2022-10-09T10:54:36.243Z,23.22
2022-10-09T10:57:18.678Z,23.22
2022-10-09T11:00:06.241Z,23.22
2022-10-09T11:03:06.345Z,23.23
2022-10-09T11:05:49.065Z,23.22
2022-10-09T11:08:34.152Z,22.97
2022-10-09T11:11:29.546Z,23.23
2022-10-09T11:14:03.560Z,23.24
2022-10-09T11:16:38.784Z,23.21
2022-10-09T11:19:45.514Z,23.24
2022-10-09T11:22:40.170Z,23.24
2022-10-09T11:25:14.581Z,23.23
2022-10-09T11:27:55.459Z,23.24
2022-10-09T11:30:22.268Z,23.24
2022-10-09T11:33:01.021Z,23.24
2022-10-09T11:35:37.556Z,23.24
2022-10-09T11:38:12.697Z,23.24
2022-10-09T11:40:43.462Z,23.25
2022-10-09T11:43:20.393Z,23.24
2022-10-09T11:46:13.683Z,23.25
2022-10-09T11:49:16.399Z,23.25
2022-10-09T11:52:09.207Z,23.26
2022-10-09T11:54:35.921Z,23.26
2022-10-09T11:57:06.317Z,23.27
2022-10-09T11:59:36.568Z,23.27
2022-10-09T12:02:25.024Z,23.27
2022-10-09T12:04:55.267Z,23.28
2022-10-09T12:07:32.073Z,23.28
2022-10-09T12:10:23.405Z,23.27
2022-10-09T12:13:03.377Z,23.28
2022-10-09T12:15:53.395Z,23.29
2022-10-09T12:18:33.511Z,23.25
2022-10-09T12:21:05.148Z,23.25
2022-10-09T12:23:36.092Z,23.30
2022-10-09T12:26:03.749Z,23.29
2022-10-09T12:28:40.292Z,23.31
2022-10-09T12:31:23.430Z,23.30
2022-10-09T12:33:57.812Z,23.32
2022-10-09T12:36:27.679Z,23.32
2022-10-09T12:38:54.269Z,23.31
2022-10-09T12:41:32.328Z,23.32
2022-10-09T12:43:59.366Z,23.31
2022-10-09T12:46:37.475Z,23.31
2022-10-09T12:49:14.861Z,23.32
2022-10-09T12:51:41.490Z,23.30
2022-10-09T12:54:09.849Z,23.31
2022-10-09T12:56:38.563Z,23.30
2022-10-09T12:59:07.017Z,23.30
2022-10-09T13:01:35.042Z,23.31
2022-10-09T13:04:05.222Z,23.31
2022-10-09T13:06:42.996Z,23.32
2022-10-09T13:09:21.076Z,23.28
2022-10-09T13:11:55.874Z,23.24
2022-10-09T13:14:33.183Z,23.32
2022-10-09T13:17:00.814Z,23.32
2022-10-09T13:19:29.225Z,23.32
2022-10-09T13:22:04.540Z,23.31
2022-10-09T13:24:31.144Z,23.30
2022-10-09T13:26:57.650Z,23.29
2022-10-09T13:29:24.299Z,23.24
2022-10-09T13:31:50.785Z,23.23
2022-10-09T13:34:18.813Z,23.20
2022-10-09T13:36:45.443Z,23.18
2022-10-09T13:39:16.112Z,23.15
2022-10-09T13:41:44.699Z,23.13
2022-10-09T13:44:11.380Z,23.09
2022-10-09T13:46:37.925Z,23.07
2022-10-09T13:49:04.456Z,23.04
2022-10-09T13:51:32.037Z,22.94
2022-10-09T13:53:58.575Z,23.01
2022-10-09T13:56:26.068Z,22.99
2022-10-09T13:58:53.156Z,22.97
2022-10-09T14:01:19.859Z,22.95
2022-10-09T14:03:46.496Z,22.94
2022-10-09T14:06:13.072Z,22.92
2022-10-09T14:08:39.604Z,22.90
2022-10-09T14:15:47.638Z,22.91
2022-10-09T14:18:14.770Z,22.92
2022-10-09T14:20:41.346Z,22.92
2022-10-09T14:23:09.214Z,22.92
2022-10-09T14:25:35.790Z,22.92
2022-10-09T14:28:02.478Z,22.83
2022-10-09T14:30:29.105Z,22.92
2022-10-09T14:32:55.871Z,22.92
2022-10-09T14:35:22.382Z,22.94
2022-10-09T14:37:49.219Z,22.94
2022-10-09T14:40:15.784Z,22.88
2022-10-09T14:42:42.415Z,22.93
2022-10-09T14:45:09.707Z,22.94
2022-10-09T14:47:36.366Z,22.93
2022-10-09T14:50:03.541Z,22.94
2022-10-09T14:52:32.823Z,22.93
2022-10-09T14:54:59.380Z,22.94
2022-10-09T14:57:26.000Z,22.95
2022-10-09T14:59:53.039Z,22.95
2022-10-09T15:02:19.632Z,22.94
2022-10-09T15:04:46.117Z,22.95
2022-10-09T15:07:12.779Z,22.93
2022-10-09T15:09:39.273Z,22.95
2022-10-09T15:12:05.861Z,22.95
2022-10-09T15:14:32.486Z,22.94
2022-10-09T15:16:59.057Z,22.95
2022-10-09T15:19:25.596Z,22.94
2022-10-09T15:21:52.157Z,22.95
2022-10-09T15:24:18.748Z,22.95
2022-10-09T15:26:45.280Z,22.94
2022-10-09T15:29:14.572Z,22.94
2022-10-09T15:31:41.957Z,22.94
2022-10-09T15:34:10.051Z,22.94
2022-10-09T15:36:39.838Z,22.95
2022-10-09T15:39:08.732Z,22.93
2022-10-09T15:41:37.436Z,22.94
2022-10-09T15:44:06.700Z,22.87
2022-10-09T15:46:34.063Z,22.93
2022-10-09T15:49:00.560Z,22.93
2022-10-09T15:51:28.252Z,22.92
2022-10-09T15:53:56.063Z,22.92
2022-10-09T15:56:24.557Z,22.93
2022-10-09T15:58:52.823Z,22.91
2022-10-09T16:01:19.891Z,22.91
2022-10-09T16:03:46.980Z,22.91
2022-10-09T16:06:16.671Z,22.90
2022-10-09T16:08:43.605Z,22.91
2022-10-09T16:11:12.862Z,22.90
2022-10-09T16:13:42.055Z,22.88
2022-10-09T16:16:13.548Z,22.88
2022-10-09T16:18:40.172Z,22.89
2022-10-09T16:21:09.234Z,22.88
2022-10-09T16:23:36.487Z,22.79
2022-10-09T16:26:04.181Z,22.87
2022-10-09T16:28:31.689Z,22.87
2022-10-09T16:30:58.292Z,22.79
2022-10-09T16:33:25.074Z,22.87
2022-10-09T16:35:51.852Z,22.81
2022-10-09T16:38:18.585Z,22.86
2022-10-09T16:41:01.281Z,22.85
2022-10-09T16:43:28.865Z,22.84
2022-10-09T16:45:55.406Z,22.83
2022-10-09T16:48:21.949Z,22.83
2022-10-09T16:50:48.782Z,22.83
2022-10-09T16:53:15.503Z,22.82
2022-10-09T16:55:41.990Z,22.81
2022-10-09T16:58:13.381Z,22.81
2022-10-09T17:00:39.995Z,22.80
2022-10-09T17:03:06.745Z,22.80
2022-10-09T17:05:38.378Z,22.72
2022-10-09T17:08:04.957Z,22.79
2022-10-09T17:10:31.462Z,22.78
2022-10-09T17:12:58.021Z,22.77
2022-10-09T17:15:24.507Z,22.77
2022-10-09T17:17:51.359Z,22.77
2022-10-09T17:22:38.513Z,22.76
2022-10-09T17:25:05.662Z,22.75
2022-10-09T17:27:32.698Z,22.74
2022-10-09T17:29:59.307Z,22.74
2022-10-09T17:32:25.837Z,22.74
2022-10-09T17:34:52.403Z,22.74
2022-10-09T17:37:18.951Z,22.73
2022-10-09T17:39:49.725Z,22.72
2022-10-09T17:42:18.551Z,22.73
2022-10-09T17:44:45.113Z,22.72
2022-10-09T17:47:12.809Z,22.72
2022-10-09T17:49:39.312Z,22.71
2022-10-09T17:52:05.960Z,22.71
2022-10-09T17:54:33.180Z,22.70
2022-10-09T17:57:01.239Z,22.69
2022-10-09T17:59:28.026Z,22.69
2022-10-09T18:01:54.709Z,22.68
2022-10-09T18:04:21.329Z,22.69
2022-10-09T18:06:47.950Z,22.68
2022-10-09T18:09:14.476Z,22.67
2022-10-09T18:11:41.154Z,22.68
2022-10-09T18:14:07.844Z,22.59
2022-10-09T18:16:37.799Z,22.67
2022-10-09T18:19:15.751Z,22.66
2022-10-09T18:21:47.931Z,22.66
2022-10-09T18:24:15.780Z,22.65
2022-10-09T18:26:42.768Z,22.65
2022-10-09T18:31:34.317Z,22.64
2022-10-09T18:34:01.424Z,22.64
2022-10-09T18:36:34.427Z,22.63
2022-10-09T18:39:07.952Z,22.62
2022-10-09T18:43:48.573Z,22.60
2022-10-09T18:46:17.562Z,22.61
2022-10-09T18:48:45.254Z,22.60
2022-10-09T18:51:19.029Z,22.59
2022-10-09T18:53:48.463Z,22.60
2022-10-09T18:56:19.527Z,22.60
2022-10-09T18:58:48.532Z,22.59
2022-10-09T19:01:18.208Z,22.59
2022-10-09T19:06:07.121Z,22.58
2022-10-09T19:08:34.308Z,22.58
2022-10-09T19:11:01.040Z,22.58
2022-10-09T19:13:27.882Z,22.58
2022-10-09T19:15:58.491Z,22.58
2022-10-09T19:18:30.519Z,22.47
2022-10-09T19:20:57.220Z,22.56
2022-10-09T19:23:23.843Z,22.56
2022-10-09T19:25:54.257Z,22.55
2022-10-09T19:28:23.107Z,22.56
2022-10-09T19:30:50.179Z,22.55
2022-10-09T19:33:17.740Z,22.55
2022-10-09T19:35:49.607Z,22.47
2022-10-09T19:38:19.444Z,22.44
2022-10-09T19:40:46.241Z,22.53
2022-10-09T19:43:15.183Z,22.53
2022-10-09T19:45:42.197Z,22.52
2022-10-09T19:48:09.056Z,22.53
2022-10-09T19:50:41.417Z,22.52
2022-10-09T19:53:07.949Z,22.52
2022-10-09T19:55:35.439Z,22.51
2022-10-09T19:58:05.032Z,22.51
2022-10-09T20:00:31.852Z,22.50
2022-10-09T20:02:58.649Z,22.51
2022-10-09T20:05:25.243Z,22.49
2022-10-09T20:07:51.851Z,22.49
2022-10-09T20:10:18.568Z,22.49
2022-10-09T20:12:49.716Z,22.49
2022-10-09T20:15:16.669Z,22.48
2022-10-09T20:17:43.267Z,22.47
2022-10-09T20:20:10.552Z,22.50
2022-10-09T20:22:37.225Z,22.49
2022-10-09T20:25:04.381Z,22.49
2022-10-09T20:27:31.553Z,22.49
2022-10-09T20:29:58.201Z,22.48
2022-10-09T20:32:25.438Z,22.40
2022-10-09T20:34:52.225Z,22.47
2022-10-09T20:37:18.789Z,22.47
2022-10-09T20:39:47.783Z,22.47
2022-10-09T20:42:14.393Z,22.40
2022-10-09T20:44:42.352Z,22.46
2022-10-09T20:47:11.552Z,22.47
2022-10-09T20:49:38.145Z,22.47
2022-10-09T20:52:04.762Z,22.45
2022-10-09T20:54:31.364Z,22.47
2022-10-09T20:56:58.104Z,22.46
2022-10-09T20:59:24.673Z,22.46
2022-10-09T21:01:51.191Z,22.47
2022-10-09T21:04:17.835Z,22.46
2022-10-09T21:06:44.425Z,22.46
2022-10-09T21:09:11.036Z,22.47
2022-10-09T21:11:39.076Z,22.47
2022-10-09T21:16:36.534Z,22.36
2022-10-09T21:19:04.666Z,22.49
2022-10-09T21:21:32.232Z,22.44
2022-10-09T21:24:00.010Z,22.50
2022-10-09T21:26:27.869Z,22.49
2022-10-09T21:28:59.305Z,22.50
2022-10-09T21:31:29.034Z,22.51
2022-10-09T21:33:56.492Z,22.50
2022-10-09T21:37:08.909Z,22.51
2022-10-09T21:39:33.055Z,22.51
2022-10-09T21:41:59.649Z,22.50
2022-10-09T21:44:26.287Z,22.50
2022-10-09T21:46:52.780Z,22.50
2022-10-09T21:49:24.771Z,22.49
2022-10-09T21:51:51.744Z,22.48
2022-10-09T21:54:18.356Z,22.49
2022-10-09T21:56:45.038Z,22.49
2022-10-09T21:59:12.321Z,22.48
2022-10-09T22:04:03.341Z,22.48
2022-10-09T22:06:30.208Z,22.45
2022-10-09T22:08:59.020Z,22.45
2022-10-09T22:11:25.608Z,22.46
2022-10-09T22:13:52.144Z,22.47
2022-10-09T22:16:18.794Z,22.46
2022-10-09T22:18:45.361Z,22.46
2022-10-09T22:21:14.397Z,22.46
2022-10-09T22:34:14.301Z,22.40
2022-10-09T22:36:41.140Z,22.40
2022-10-09T22:39:08.114Z,22.38
2022-10-09T22:41:36.060Z,22.39
2022-10-09T22:44:04.464Z,22.42
2022-10-09T22:46:33.862Z,22.43
2022-10-09T22:49:00.877Z,22.44
2022-10-09T22:51:28.976Z,22.44
2022-10-09T22:53:56.845Z,22.44
2022-10-09T22:56:25.823Z,22.39
2022-10-09T22:58:53.755Z,22.45
2022-10-09T23:01:25.334Z,22.33
2022-10-09T23:03:52.133Z,22.45
2022-10-09T23:06:19.989Z,22.43
2022-10-09T23:08:47.721Z,22.44
2022-10-09T23:11:15.649Z,22.44
2022-10-09T23:13:42.706Z,22.44
2022-10-09T23:16:11.161Z,22.43
2022-10-09T23:18:38.309Z,22.43
2022-10-09T23:21:07.417Z,22.44
2022-10-09T23:25:53.096Z,22.44
2022-10-09T23:28:19.629Z,22.41
2022-10-09T23:30:46.128Z,22.42
2022-10-09T23:33:12.792Z,22.41
2022-10-09T23:35:42.825Z,22.41
2022-10-09T23:38:12.475Z,22.34
2022-10-09T23:40:39.204Z,22.41
2022-10-09T23:43:05.784Z,22.42
2022-10-09T23:45:32.257Z,22.41
2022-10-09T23:47:58.819Z,22.40
2022-10-09T23:50:25.400Z,22.39
2022-10-09T23:52:52.404Z,22.36
2022-10-09T23:55:19.080Z,22.39
2022-10-09T23:57:45.621Z,22.39
